This is the latest recevied weather packets stored in our database for station/object DG8AAC-L2. If no packets are shown the sender has not sent any weather packets the latest 1 day(s).
| Time | Temp. | Humidity | Pressure | Rain* | Wind** | Luminosity | Snow |
|---|---|---|---|---|---|---|---|
| 1778086412 | 12.22° C | 54% | 1009.3 hPa | - | - | - | - |
| 1778084612 | 11.67° C | 54% | 1009.1 hPa | - | - | - | - |
| 1778066611 | 11.67° C | 51% | 1009.3 hPa | - | - | - | - |
| 1778063011 | 11.11° C | 52% | 1009.2 hPa | - | - | - | - |
| 1778061211 | 11.11° C | 52% | 1009 hPa | - | - | - | - |
| 1778059411 | 10.56° C | 52% | 1009.1 hPa | - | - | - | - |
| 1778057611 | 10.56° C | 52% | 1008.9 hPa | - | - | - | - |
| 1778048610 | 10.56° C | 51% | 1008.3 hPa | - | - | - | - |
| 1778046814 | 10.56° C | 51% | 1008.1 hPa | - | - | - | - |
| 1778045014 | 10.56° C | 52% | 1008.2 hPa | - | - | - | - |
| 1778043214 | 10.56° C | 51% | 1008.2 hPa | - | - | - | - |
| 1778041414 | 11.11° C | 51% | 1008.3 hPa | - | - | - | - |
| 1778039614 | 11.11° C | 51% | 1008.2 hPa | - | - | - | - |
| 1778028813 | 12.22° C | 51% | 1009.3 hPa | - | - | - | - |
| 1778027013 | 12.22° C | 51% | 1009.5 hPa | - | - | - | - |
| 1778023413 | 12.78° C | 50% | 1010.2 hPa | - | - | - | - |
| 1778014413 | 13.89° C | 49% | 1010.8 hPa | - | - | - | - |
| 1778012613 | 13.89° C | 49% | 1010.7 hPa | - | - | - | - |
| 1778010813 | 14.44° C | 49% | 1010.7 hPa | - | - | - | - |
| 1778007213 | 15° C | 48% | 1010.7 hPa | - | - | - | - |
* Rain since midnight (hover to see other rain measurements)
** Current wind speed in m/s (hover to see current wind gust speed)